Time;durP1;ratioP1;P1;durP2;ratioP2;P2;SDS_P1;SDS_P2;PMS_P1;PMS_P2;Temp;Humidity;BMP_temperature;BMP_pressure;BME280_temperature;BME280_humidity;BME280_pressure;Samples;Min_cycle;Max_cycle;Signal;HPM_P1;HPM_P2
2023/08/14 00:00:21;;;;;;;;;;;19.10;99.90;;;;;;5043496;28;19915;-86
2023/08/14 00:02:46;;;;;;;;;;;19.10;99.90;;;;;;5054888;28;20094;-86
2023/08/14 00:05:12;;;;;;;;;;;19.10;99.90;;;;;;5061764;28;19995;-86
2023/08/14 00:07:37;;;;;;;;;;;19.10;99.90;;;;;;5057398;28;19975;-85
2023/08/14 00:10:03;;;;;;;;;;;19.00;99.90;;;;;;5041737;28;20399;-86
2023/08/14 00:12:28;;;;;;;;;;;19.00;99.90;;;;;;5055917;28;20455;-86
2023/08/14 00:14:54;;;;;;;;;;;18.90;99.90;;;;;;5061186;28;20276;-86
2023/08/14 00:17:20;;;;;;;;;;;19.00;99.90;;;;;;5057203;28;19940;-85
2023/08/14 00:19:45;;;;;;;;;;;19.00;99.90;;;;;;5063685;28;19904;-84
2023/08/14 00:22:11;;;;;;;;;;;19.00;99.90;;;;;;5040573;28;20338;-86
2023/08/14 00:24:37;;;;;;;;;;;19.10;99.90;;;;;;5039774;28;19961;-85
2023/08/14 00:27:03;;;;;;;;;;;19.10;99.90;;;;;;5058541;28;19913;-85
2023/08/14 00:29:28;;;;;;;;;;;19.10;99.90;;;;;;5040598;28;20540;-85
2023/08/14 00:31:54;;;;;;;;;;;19.20;99.90;;;;;;5061100;28;19908;-86
2023/08/14 00:34:20;;;;;;;;;;;19.20;99.90;;;;;;5058927;28;19909;-85
2023/08/14 00:36:45;;;;;;;;;;;19.30;99.90;;;;;;5054654;28;20271;-86
2023/08/14 00:39:11;;;;;;;;;;;19.40;99.90;;;;;;5058649;28;19911;-86
2023/08/14 00:41:37;;;;;;;;;;;19.40;99.90;;;;;;5067649;28;19959;-85
2023/08/14 00:44:03;;;;;;;;;;;19.50;99.90;;;;;;5059329;28;19995;-86
2023/08/14 00:46:30;;;;;;;;;;;19.50;99.90;;;;;;5056335;28;19939;-86
2023/08/14 00:48:55;;;;;;;;;;;19.50;99.90;;;;;;5045747;28;19962;-85
2023/08/14 00:51:22;;;;;;;;;;;19.50;99.90;;;;;;5059833;28;20314;-86
2023/08/14 00:53:49;;;;;;;;;;;19.50;99.90;;;;;;5063492;28;19905;-85
2023/08/14 00:56:14;;;;;;;;;;;19.40;99.90;;;;;;5060773;28;19909;-86
2023/08/14 00:58:40;;;;;;;;;;;19.40;99.90;;;;;;5059220;28;19919;-86
2023/08/14 01:01:23;;;;;;;;;;;19.40;99.90;;;;;;5045385;28;20379;-86
2023/08/14 01:03:49;;;;;;;;;;;19.40;99.90;;;;;;5062272;28;20003;-86
2023/08/14 01:06:15;;;;;;;;;;;19.30;99.90;;;;;;5037955;28;19956;-86
2023/08/14 01:08:41;;;;;;;;;;;19.20;99.90;;;;;;5064648;28;19951;-85
2023/08/14 01:11:07;;;;;;;;;;;19.20;99.90;;;;;;5052720;28;19988;-86
2023/08/14 01:13:36;;;;;;;;;;;19.20;99.90;;;;;;5056376;28;19909;-86
2023/08/14 01:16:14;;;;;;;;;;;19.20;99.90;;;;;;5060058;28;19916;-85
2023/08/14 01:18:40;;;;;;;;;;;19.20;99.90;;;;;;5060093;28;19992;-85
2023/08/14 01:21:09;;;;;;;;;;;19.10;99.90;;;;;;5042711;28;19905;-85
2023/08/14 01:23:55;;;;;;;;;;;19.10;99.90;;;;;;5076818;28;19909;-86
2023/08/14 01:26:22;;;;;;;;;;;19.00;99.90;;;;;;5063624;28;19908;-85
2023/08/14 01:28:47;;;;;;;;;;;19.00;99.90;;;;;;5059795;28;19995;-86
2023/08/14 01:31:13;;;;;;;;;;;19.00;99.90;;;;;;5043713;28;19994;-86
2023/08/14 01:33:39;;;;;;;;;;;19.10;99.90;;;;;;5040672;28;19908;-86
2023/08/14 01:36:12;;;;;;;;;;;19.10;99.90;;;;;;5063001;28;19909;-86
2023/08/14 01:38:48;;;;;;;;;;;19.20;99.90;;;;;;5059222;28;19909;-85
2023/08/14 01:41:18;;;;;;;;;;;19.20;99.90;;;;;;5045055;28;20356;-86
2023/08/14 01:43:46;;;;;;;;;;;19.20;99.90;;;;;;5061704;28;19909;-85
2023/08/14 01:46:12;;;;;;;;;;;19.20;99.90;;;;;;5058861;28;20379;-85
2023/08/14 01:48:38;;;;;;;;;;;19.10;99.90;;;;;;5046488;28;19916;-86
2023/08/14 01:51:04;;;;;;;;;;;19.10;99.90;;;;;;5060461;28;19905;-86
2023/08/14 01:53:32;;;;;;;;;;;19.00;99.90;;;;;;5039661;28;19909;-85
2023/08/14 01:55:58;;;;;;;;;;;19.00;99.90;;;;;;5062155;28;19939;-86
2023/08/14 01:58:24;;;;;;;;;;;19.00;99.90;;;;;;5040297;28;20356;-86
2023/08/14 02:00:49;;;;;;;;;;;19.00;99.90;;;;;;5064543;28;19916;-86
2023/08/14 02:03:15;;;;;;;;;;;19.00;99.90;;;;;;5058147;28;19905;-85
2023/08/14 02:05:40;;;;;;;;;;;19.10;99.90;;;;;;5059163;28;19909;-86
2023/08/14 02:08:06;;;;;;;;;;;19.10;99.90;;;;;;5042977;28;20364;-85
2023/08/14 02:10:31;;;;;;;;;;;19.10;99.90;;;;;;5061368;28;19908;-85
2023/08/14 02:12:57;;;;;;;;;;;19.10;99.90;;;;;;5043031;28;19912;-85
2023/08/14 02:15:23;;;;;;;;;;;19.20;99.90;;;;;;5040826;28;20019;-85
2023/08/14 02:17:49;;;;;;;;;;;19.20;99.90;;;;;;5045619;28;19905;-86
2023/08/14 02:20:15;;;;;;;;;;;19.20;99.90;;;;;;5057168;28;20371;-85
2023/08/14 02:23:09;;;;;;;;;;;19.20;99.90;;;;;;5061219;28;19909;-86
2023/08/14 02:25:38;;;;;;;;;;;19.20;99.90;;;;;;5044609;28;20053;-85
2023/08/14 02:28:04;;;;;;;;;;;19.30;99.90;;;;;;5055851;28;20298;-85
2023/08/14 02:30:30;;;;;;;;;;;19.30;99.90;;;;;;5042717;28;19915;-86
2023/08/14 02:32:56;;;;;;;;;;;19.30;99.90;;;;;;5059949;28;19991;-85
2023/08/14 02:35:22;;;;;;;;;;;19.30;99.90;;;;;;5060713;28;19908;-85
2023/08/14 02:37:48;;;;;;;;;;;19.30;99.90;;;;;;5061140;28;19915;-85
2023/08/14 02:40:15;;;;;;;;;;;19.40;99.90;;;;;;5053527;28;19908;-86
2023/08/14 02:42:40;;;;;;;;;;;19.30;99.90;;;;;;5045631;28;19954;-85
2023/08/14 02:45:06;;;;;;;;;;;19.40;99.90;;;;;;5056177;28;19909;-86
2023/08/14 02:47:31;;;;;;;;;;;19.40;99.90;;;;;;5041722;28;19912;-85
2023/08/14 02:49:59;;;;;;;;;;;19.40;99.90;;;;;;5056125;28;19959;-85
2023/08/14 02:52:25;;;;;;;;;;;19.30;99.90;;;;;;5044282;28;19954;-86
2023/08/14 02:54:51;;;;;;;;;;;19.20;99.90;;;;;;5057423;28;20348;-86
2023/08/14 02:57:16;;;;;;;;;;;19.10;99.90;;;;;;5047023;28;19917;-85
2023/08/14 02:59:42;;;;;;;;;;;19.00;99.90;;;;;;5058608;28;20633;-85
2023/08/14 03:02:07;;;;;;;;;;;18.90;99.90;;;;;;5040741;28;19904;-85
2023/08/14 03:04:33;;;;;;;;;;;18.90;99.90;;;;;;5059205;28;19913;-85
2023/08/14 03:06:59;;;;;;;;;;;18.90;99.90;;;;;;5059062;28;20359;-85
2023/08/14 03:09:24;;;;;;;;;;;18.90;99.90;;;;;;5035854;28;19936;-86
2023/08/14 03:11:50;;;;;;;;;;;18.90;99.90;;;;;;5043824;28;19912;-85
2023/08/14 03:14:15;;;;;;;;;;;18.90;99.90;;;;;;5053669;28;19915;-86
2023/08/14 03:16:41;;;;;;;;;;;18.90;99.90;;;;;;5062066;28;19991;-85
2023/08/14 03:19:06;;;;;;;;;;;18.70;99.90;;;;;;5055006;28;19970;-86
2023/08/14 03:21:32;;;;;;;;;;;18.70;99.90;;;;;;5045499;28;19995;-86
2023/08/14 03:23:58;;;;;;;;;;;18.70;99.90;;;;;;5057830;28;19909;-85
2023/08/14 03:26:23;;;;;;;;;;;18.70;99.90;;;;;;5059521;28;20296;-85
2023/08/14 03:28:49;;;;;;;;;;;18.70;99.90;;;;;;5056332;28;19913;-85
2023/08/14 03:31:16;;;;;;;;;;;18.70;99.90;;;;;;5061870;28;20473;-85
2023/08/14 03:36:56;;;;;;;;;;;18.70;99.90;;;;;;5053005;28;20027;-85
2023/08/14 03:39:34;;;;;;;;;;;18.60;99.90;;;;;;5061053;28;19917;-85
2023/08/14 03:41:59;;;;;;;;;;;18.60;99.90;;;;;;5057323;28;19913;-85
2023/08/14 03:44:25;;;;;;;;;;;18.60;99.90;;;;;;5062290;28;19928;-85
2023/08/14 03:46:50;;;;;;;;;;;18.60;99.90;;;;;;5040826;28;19916;-85
2023/08/14 03:49:16;;;;;;;;;;;18.60;99.90;;;;;;5067047;28;19982;-85
2023/08/14 03:51:43;;;;;;;;;;;18.50;99.90;;;;;;5055890;28;19912;-84
2023/08/14 03:54:08;;;;;;;;;;;18.50;99.90;;;;;;5044621;28;19955;-85
2023/08/14 03:56:35;;;;;;;;;;;18.50;99.90;;;;;;5040594;28;20012;-85
2023/08/14 03:59:01;;;;;;;;;;;18.60;99.90;;;;;;5055087;28;20348;-85
2023/08/14 04:01:26;;;;;;;;;;;18.60;99.90;;;;;;5054332;28;19916;-85
2023/08/14 04:04:04;;;;;;;;;;;18.60;99.90;;;;;;5057498;28;19920;-85
2023/08/14 04:06:30;;;;;;;;;;;18.50;99.90;;;;;;5043627;28;19935;-85
2023/08/14 04:08:57;;;;;;;;;;;18.50;99.90;;;;;;5057806;28;19916;-85
2023/08/14 04:11:23;;;;;;;;;;;18.50;99.90;;;;;;5057696;28;20019;-85
2023/08/14 04:13:48;;;;;;;;;;;18.50;99.90;;;;;;5054209;28;19960;-84
2023/08/14 04:16:14;;;;;;;;;;;18.40;99.90;;;;;;5060086;28;19912;-86
2023/08/14 04:18:40;;;;;;;;;;;18.40;99.90;;;;;;5057725;28;19959;-86
2023/08/14 04:21:05;;;;;;;;;;;18.40;99.90;;;;;;5037244;28;19913;-88
2023/08/14 04:23:31;;;;;;;;;;;18.40;99.90;;;;;;5043849;28;19912;-86
2023/08/14 04:26:28;;;;;;;;;;;18.40;99.90;;;;;;5064228;28;19917;-87
2023/08/14 04:28:54;;;;;;;;;;;18.40;99.90;;;;;;5062950;28;19917;-86
2023/08/14 04:31:20;;;;;;;;;;;18.40;99.90;;;;;;5042178;28;19921;-87
2023/08/14 04:33:46;;;;;;;;;;;18.40;99.90;;;;;;5046032;28;19909;-87
2023/08/14 04:36:12;;;;;;;;;;;18.40;99.90;;;;;;5045486;28;19935;-87
2023/08/14 04:38:38;;;;;;;;;;;18.40;99.90;;;;;;5046938;28;20012;-87
2023/08/14 04:41:04;;;;;;;;;;;18.50;99.90;;;;;;5047275;28;20001;-87
2023/08/14 04:43:31;;;;;;;;;;;18.60;99.90;;;;;;5040005;28;19920;-87
2023/08/14 04:45:57;;;;;;;;;;;18.50;99.90;;;;;;5049425;28;19917;-87
2023/08/14 04:48:23;;;;;;;;;;;18.50;99.90;;;;;;5058282;28;19913;-87
2023/08/14 04:50:48;;;;;;;;;;;18.60;99.90;;;;;;5043808;28;19909;-86
2023/08/14 04:53:14;;;;;;;;;;;18.60;99.90;;;;;;5041998;28;20315;-87
2023/08/14 04:56:14;;;;;;;;;;;18.70;99.90;;;;;;5062644;28;19913;-87
2023/08/14 04:58:40;;;;;;;;;;;18.80;99.90;;;;;;5064286;28;20007;-86
2023/08/14 05:01:06;;;;;;;;;;;18.90;99.90;;;;;;5060902;28;19912;-86
2023/08/14 05:03:33;;;;;;;;;;;19.00;99.90;;;;;;5044869;28;19912;-87
2023/08/14 05:05:59;;;;;;;;;;;19.10;99.90;;;;;;5040604;28;19917;-87
2023/08/14 05:08:24;;;;;;;;;;;19.10;99.90;;;;;;5063284;28;19919;-87
2023/08/14 05:10:50;;;;;;;;;;;19.00;99.90;;;;;;5060038;28;19909;-87
2023/08/14 05:13:16;;;;;;;;;;;19.00;99.90;;;;;;5049374;28;20394;-87
2023/08/14 05:15:42;;;;;;;;;;;18.90;99.90;;;;;;5044463;28;20372;-87
2023/08/14 05:18:08;;;;;;;;;;;18.90;99.90;;;;;;5043488;28;20055;-87
2023/08/14 05:20:34;;;;;;;;;;;18.90;99.90;;;;;;5043782;28;19913;-87
2023/08/14 05:23:00;;;;;;;;;;;18.90;99.90;;;;;;5052348;28;20397;-87
2023/08/14 05:25:25;;;;;;;;;;;18.90;99.90;;;;;;5056162;28;19998;-87
2023/08/14 05:27:51;;;;;;;;;;;18.90;99.90;;;;;;5054360;28;20276;-87
2023/08/14 05:30:16;;;;;;;;;;;19.00;99.90;;;;;;5054074;28;19928;-87
2023/08/14 05:32:46;;;;;;;;;;;19.10;99.90;;;;;;5051768;28;19975;-88
2023/08/14 05:35:12;;;;;;;;;;;19.20;99.90;;;;;;5053277;28;20323;-87
2023/08/14 05:37:39;;;;;;;;;;;19.30;99.90;;;;;;5058278;28;19921;-87
2023/08/14 05:40:05;;;;;;;;;;;19.30;99.90;;;;;;5059102;28;19912;-87
2023/08/14 05:42:30;;;;;;;;;;;19.40;99.90;;;;;;5056980;28;19913;-87
2023/08/14 05:44:56;;;;;;;;;;;19.50;99.90;;;;;;5058805;28;20279;-87
2023/08/14 05:47:21;;;;;;;;;;;19.60;99.90;;;;;;5054871;28;20011;-87
2023/08/14 05:49:47;;;;;;;;;;;19.70;99.90;;;;;;5063624;28;19971;-88
2023/08/14 05:52:13;;;;;;;;;;;19.80;99.90;;;;;;5042711;28;20007;-87
2023/08/14 05:54:39;;;;;;;;;;;19.80;99.90;;;;;;5040092;28;19948;-87
2023/08/14 05:57:05;;;;;;;;;;;19.80;99.90;;;;;;5038322;28;19917;-87
2023/08/14 05:59:33;;;;;;;;;;;19.80;99.90;;;;;;5054342;28;19920;-87
2023/08/14 06:01:59;;;;;;;;;;;19.80;99.90;;;;;;5052250;28;19947;-87
2023/08/14 06:04:27;;;;;;;;;;;19.80;99.90;;;;;;5037186;28;20361;-88
2023/08/14 06:06:53;;;;;;;;;;;19.80;99.90;;;;;;5040196;28;19913;-87
2023/08/14 06:09:19;;;;;;;;;;;19.90;99.90;;;;;;5031094;28;19924;-88
2023/08/14 06:11:45;;;;;;;;;;;19.90;99.90;;;;;;5054346;28;19963;-88
2023/08/14 06:14:11;;;;;;;;;;;20.00;99.90;;;;;;5053912;28;19917;-88
2023/08/14 06:16:36;;;;;;;;;;;20.10;99.90;;;;;;5036935;28;19916;-88
2023/08/14 06:19:02;;;;;;;;;;;20.20;99.90;;;;;;5061906;28;19959;-87
2023/08/14 06:21:28;;;;;;;;;;;20.30;99.90;;;;;;5054422;28;20580;-87
2023/08/14 06:23:53;;;;;;;;;;;20.40;99.90;;;;;;5054292;28;19917;-87
2023/08/14 06:26:19;;;;;;;;;;;20.40;99.90;;;;;;5055332;28;19964;-87
2023/08/14 06:28:45;;;;;;;;;;;20.50;99.90;;;;;;5036157;28;20249;-88
2023/08/14 06:31:10;;;;;;;;;;;20.50;99.90;;;;;;5058498;28;19913;-88
2023/08/14 06:33:36;;;;;;;;;;;20.50;99.90;;;;;;5055213;28;19912;-87
2023/08/14 06:36:02;;;;;;;;;;;20.40;99.90;;;;;;5060862;28;19912;-88
2023/08/14 06:38:27;;;;;;;;;;;20.40;99.90;;;;;;5059172;28;20356;-87
2023/08/14 06:40:53;;;;;;;;;;;20.20;99.90;;;;;;5034812;28;19913;-87
2023/08/14 06:43:19;;;;;;;;;;;20.10;99.90;;;;;;5054045;28;19917;-88
2023/08/14 06:45:46;;;;;;;;;;;20.10;99.90;;;;;;5037366;28;19909;-87
2023/08/14 06:48:12;;;;;;;;;;;20.20;99.90;;;;;;5056314;28;19971;-88
2023/08/14 06:50:38;;;;;;;;;;;20.40;99.90;;;;;;5053499;28;19964;-88
2023/08/14 06:53:03;;;;;;;;;;;20.50;99.90;;;;;;5058088;28;19935;-87
2023/08/14 06:55:29;;;;;;;;;;;20.70;99.90;;;;;;5054417;28;19912;-87
2023/08/14 06:57:54;;;;;;;;;;;20.90;99.90;;;;;;5062472;28;19908;-87
2023/08/14 07:00:20;;;;;;;;;;;20.90;99.90;;;;;;5052354;28;19912;-88
2023/08/14 07:02:47;;;;;;;;;;;21.00;99.90;;;;;;5036547;28;19912;-88
2023/08/14 07:05:14;;;;;;;;;;;21.20;99.90;;;;;;5054586;28;19923;-88
2023/08/14 07:07:39;;;;;;;;;;;21.40;99.90;;;;;;5055574;28;19924;-87
2023/08/14 07:10:06;;;;;;;;;;;21.70;99.90;;;;;;5066719;28;20331;-86
2023/08/14 07:12:31;;;;;;;;;;;21.90;99.90;;;;;;5062138;28;19917;-87
2023/08/14 07:14:57;;;;;;;;;;;22.00;99.90;;;;;;5036307;28;19920;-88
2023/08/14 07:17:23;;;;;;;;;;;22.00;99.90;;;;;;5059269;28;19913;-87
2023/08/14 07:19:49;;;;;;;;;;;22.00;99.90;;;;;;5052397;28;19983;-87
2023/08/14 07:22:14;;;;;;;;;;;21.90;99.90;;;;;;5061508;28;19986;-88
2023/08/14 07:24:40;;;;;;;;;;;22.00;99.90;;;;;;5052414;28;19908;-87
2023/08/14 07:27:06;;;;;;;;;;;22.00;99.90;;;;;;5052483;28;19909;-87
2023/08/14 07:29:31;;;;;;;;;;;22.10;99.90;;;;;;5054547;28;19912;-87
2023/08/14 07:31:57;;;;;;;;;;;22.00;99.90;;;;;;5035424;28;19917;-87
2023/08/14 07:34:23;;;;;;;;;;;22.10;99.90;;;;;;5046184;28;20050;-87
2023/08/14 07:36:51;;;;;;;;;;;22.20;99.90;;;;;;5052209;28;19913;-87
2023/08/14 07:39:17;;;;;;;;;;;22.20;99.90;;;;;;5034510;28;19924;-87
2023/08/14 07:41:42;;;;;;;;;;;22.20;99.90;;;;;;5052166;28;20268;-87
2023/08/14 07:44:08;;;;;;;;;;;22.10;99.90;;;;;;5055487;28;19995;-87
2023/08/14 07:46:34;;;;;;;;;;;22.10;99.90;;;;;;5056513;28;19917;-87
2023/08/14 07:48:59;;;;;;;;;;;22.20;99.90;;;;;;5057437;28;19920;-87
2023/08/14 07:51:25;;;;;;;;;;;22.10;99.90;;;;;;5063252;28;19909;-87
2023/08/14 07:53:52;;;;;;;;;;;22.10;99.90;;;;;;5063687;28;19980;-88
2023/08/14 07:56:18;;;;;;;;;;;22.10;99.90;;;;;;5060217;28;20000;-87
2023/08/14 07:58:43;;;;;;;;;;;22.10;99.90;;;;;;5061031;28;19944;-87
2023/08/14 08:01:09;;;;;;;;;;;22.00;99.90;;;;;;5049249;28;20367;-87
2023/08/14 08:03:35;;;;;;;;;;;22.10;99.90;;;;;;5065353;28;19969;-88
2023/08/14 08:06:00;;;;;;;;;;;22.30;99.90;;;;;;5067054;28;19909;-87
2023/08/14 08:08:26;;;;;;;;;;;22.50;99.90;;;;;;5064846;28;20411;-88
2023/08/14 08:10:51;;;;;;;;;;;22.70;99.90;;;;;;5061538;28;20360;-87
2023/08/14 08:13:17;;;;;;;;;;;23.10;99.90;;;;;;5047879;28;19917;-87
2023/08/14 08:15:43;;;;;;;;;;;23.40;99.90;;;;;;5065170;28;19909;-87
2023/08/14 08:18:08;;;;;;;;;;;23.80;99.90;;;;;;5065983;28;19912;-87
2023/08/14 08:20:34;;;;;;;;;;;24.20;99.90;;;;;;5059999;28;19955;-88
2023/08/14 08:22:59;;;;;;;;;;;24.60;99.90;;;;;;5047076;28;20294;-87
2023/08/14 08:25:25;;;;;;;;;;;24.90;99.90;;;;;;5062612;28;24071;-87
2023/08/14 08:27:50;;;;;;;;;;;25.30;99.90;;;;;;5043388;28;20003;-88
2023/08/14 08:30:16;;;;;;;;;;;25.60;99.90;;;;;;5058770;28;25044;-88
2023/08/14 08:32:42;;;;;;;;;;;25.90;99.90;;;;;;5061819;28;19912;-88
2023/08/14 08:35:07;;;;;;;;;;;25.80;99.90;;;;;;5041262;28;25057;-87
2023/08/14 08:37:33;;;;;;;;;;;25.90;99.90;;;;;;5047575;28;19947;-87
2023/08/14 08:39:58;;;;;;;;;;;25.80;99.90;;;;;;5041697;28;20367;-88
2023/08/14 08:42:24;;;;;;;;;;;26.00;99.90;;;;;;5059553;28;25111;-88
2023/08/14 08:44:52;;;;;;;;;;;26.40;99.90;;;;;;5060540;28;19924;-88
2023/08/14 08:47:19;;;;;;;;;;;27.30;99.90;;;;;;5061996;28;19909;-88
2023/08/14 08:49:46;;;;;;;;;;;28.90;99.90;;;;;;5062517;28;19919;-89
2023/08/14 08:52:11;;;;;;;;;;;30.60;99.90;;;;;;5064463;28;19916;-89
2023/08/14 08:54:38;;;;;;;;;;;31.00;99.90;;;;;;5061811;28;19913;-89
2023/08/14 08:57:04;;;;;;;5.50;2.30;;;31.70;99.90;;;;;;5060148;28;19920;-88
2023/08/14 08:59:32;;;;;;;3.08;2.05;;;31.80;99.90;;;;;;5064677;28;20044;-88
2023/08/14 09:01:58;;;;;;;4.18;1.58;;;32.20;99.90;;;;;;5043726;28;20032;-88
2023/08/14 09:04:24;;;;;;;3.65;1.48;;;32.70;99.90;;;;;;5065465;28;20027;-88
2023/08/14 09:06:49;;;;;;;3.50;1.60;;;32.20;99.90;;;;;;5061401;28;20017;-88
2023/08/14 09:09:30;;;;;;;2.55;1.33;;;32.40;99.90;;;;;;5041800;28;20472;-88
2023/08/14 09:11:56;;;;;;;4.03;1.60;;;32.50;99.90;;;;;;5047947;28;20028;-88
2023/08/14 09:14:22;;;;;;;5.43;1.98;;;33.00;99.90;;;;;;5041503;28;20024;-88
2023/08/14 09:16:53;;;;;;;2.92;1.70;;;33.00;99.90;;;;;;5071567;28;21256;-88
2023/08/14 09:19:39;;;;;;;3.25;1.88;;;33.80;99.90;;;;;;5045161;28;20479;-88
2023/08/14 09:22:05;;;;;;;4.03;1.70;;;34.10;99.90;;;;;;5059827;28;20040;-88
2023/08/14 09:24:40;;;;;;;3.08;1.75;;;34.60;99.90;;;;;;5065408;28;20089;-88
2023/08/14 09:27:06;;;;;;;5.68;1.80;;;35.00;99.10;;;;;;5060654;28;20082;-88
2023/08/14 09:29:33;;;;;;;2.35;1.75;;;34.90;98.70;;;;;;5059554;28;20127;-88
2023/08/14 09:32:00;;;;;;;2.90;1.85;;;35.20;97.80;;;;;;5042023;28;20643;-89
2023/08/14 09:34:27;;;;;;;3.25;1.80;;;35.00;97.00;;;;;;5055829;28;20488;-89
2023/08/14 09:36:53;;;;;;;2.47;1.50;;;36.00;96.10;;;;;;5046259;28;20091;-89
2023/08/14 09:39:18;;;;;;;2.45;1.10;;;37.00;93.70;;;;;;5046933;28;20020;-89
2023/08/14 09:41:49;;;;;;;2.17;1.35;;;37.30;90.00;;;;;;5062457;28;20020;-88
2023/08/14 09:44:18;;;;;;;1.20;1.05;;;38.00;90.40;;;;;;5035978;28;20032;-89
2023/08/14 09:46:43;;;;;;;4.97;1.52;;;38.30;87.30;;;;;;5071538;28;20040;-88
2023/08/14 09:49:10;;;;;;;4.38;1.52;;;37.80;83.50;;;;;;5046066;28;20569;-88
2023/08/14 09:51:35;;;;;;;1.52;1.38;;;36.30;86.20;;;;;;5061035;28;20100;-88
2023/08/14 09:54:02;;;;;;;3.88;1.58;;;35.30;89.60;;;;;;5045219;28;20052;-89
2023/08/14 09:56:28;;;;;;;3.25;1.73;;;34.80;90.70;;;;;;5061985;28;20021;-88
2023/08/14 09:58:54;;;;;;;1.63;1.30;;;34.80;91.20;;;;;;5048584;28;20490;-88
2023/08/14 10:01:22;;;;;;;5.95;1.48;;;35.00;88.90;;;;;;5051626;28;20020;-88
2023/08/14 10:03:52;;;;;;;3.50;1.90;;;34.60;90.50;;;;;;5042778;28;20037;-88
2023/08/14 10:06:21;;;;;;;;;;;34.00;92.10;;;;;;5044128;28;20028;-88
2023/08/14 10:08:50;;;;;;;3.85;1.92;;;33.50;93.20;;;;;;5059738;28;19916;-88
2023/08/14 10:11:17;;;;;;;2.38;2.03;;;33.10;94.20;;;;;;5066360;28;20497;-88
2023/08/14 10:13:48;;;;;;;6.32;2.30;;;32.80;95.40;;;;;;5055548;28;20036;-89
2023/08/14 10:16:27;;;;;;;2.67;2.00;;;32.40;95.20;;;;;;5062995;28;20365;-88
2023/08/14 10:18:54;;;;;;;5.20;2.97;;;32.40;94.90;;;;;;5054981;28;20068;-89
2023/08/14 10:21:22;;;;;;;7.40;2.55;;;31.80;97.30;;;;;;5062627;28;20121;-88
2023/08/14 10:23:49;;;;;;;3.75;2.35;;;31.50;96.60;;;;;;5044649;28;20032;-88
2023/08/14 10:26:14;;;;;;;4.43;2.40;;;31.70;97.50;;;;;;5056033;28;20029;-88
2023/08/14 10:28:42;;;;;;;6.97;2.80;;;32.00;97.60;;;;;;5047360;28;20486;-88
2023/08/14 10:31:10;;;;;;;3.35;2.30;;;32.40;97.00;;;;;;5039592;28;20025;-88
2023/08/14 10:33:37;;;;;;;7.45;3.67;;;32.50;96.80;;;;;;5057123;28;20029;-88
2023/08/14 10:36:03;;;;;;;3.72;2.50;;;32.40;97.30;;;;;;5042505;28;20036;-88
2023/08/14 10:38:44;;;;;;;4.80;2.58;;;32.70;97.20;;;;;;5039224;28;20029;-88
2023/08/14 10:41:09;;;;;;;2.72;2.10;;;33.20;97.20;;;;;;5058428;28;20028;-88
2023/08/14 10:43:36;;;;;;;6.63;2.50;;;33.80;96.10;;;;;;5039373;28;20079;-88
2023/08/14 10:46:08;;;;;;;4.13;2.60;;;33.30;96.10;;;;;;5061327;28;20033;-89
2023/08/14 10:48:38;;;;;;;4.07;2.33;;;33.00;97.00;;;;;;5042587;28;20082;-88
2023/08/14 10:51:08;;;;;;;3.95;2.60;;;32.60;97.50;;;;;;5046052;28;20078;-88
2023/08/14 10:53:44;;;;;;;5.93;2.50;;;32.30;98.10;;;;;;5044635;28;20036;-88
2023/08/14 10:56:12;;;;;;;6.22;2.72;;;31.80;98.80;;;;;;5061226;28;20029;-88
2023/08/14 10:58:38;;;;;;;5.97;2.50;;;31.80;99.10;;;;;;5040852;28;20013;-88
2023/08/14 11:01:09;;;;;;;5.15;2.60;;;32.00;99.90;;;;;;5063650;28;20066;-88
2023/08/14 11:03:54;;;;;;;4.78;2.92;;;32.20;99.80;;;;;;5042470;28;20036;-88
2023/08/14 11:06:28;;;;;;;5.43;2.85;;;32.20;99.20;;;;;;5045597;28;20029;-88
2023/08/14 11:09:03;;;;;;;3.58;2.78;;;31.40;99.80;;;;;;5044162;28;20115;-88
2023/08/14 11:11:29;;;;;;;8.93;2.58;;;31.20;99.90;;;;;;5042985;28;20557;-88
2023/08/14 11:13:55;;;;;;;5.40;2.75;;;31.60;99.90;;;;;;5055028;28;20049;-89
2023/08/14 11:16:21;;;;;;;3.33;2.22;;;32.40;99.90;;;;;;5044472;28;20078;-88
2023/08/14 11:18:47;;;;;;;6.60;2.60;;;32.00;99.90;;;;;;5040543;28;20044;-88
2023/08/14 11:21:13;;;;;;;4.97;2.65;;;31.60;99.90;;;;;;5058531;28;20477;-88
2023/08/14 11:23:39;;;;;;;8.20;2.90;;;31.40;99.90;;;;;;5058089;28;20041;-87
2023/08/14 11:26:05;;;;;;;4.93;2.50;;;30.90;99.90;;;;;;5043034;28;20025;-88
2023/08/14 11:28:34;;;;;;;7.38;2.58;;;31.10;99.90;;;;;;5059841;28;20495;-88
2023/08/14 11:31:00;;;;;;;4.97;3.10;;;31.70;99.90;;;;;;5058896;28;20468;-88
2023/08/14 11:33:26;;;;;;;3.63;2.53;;;32.60;99.80;;;;;;5055932;28;20031;-88
2023/08/14 11:35:55;;;;;;;5.85;2.67;;;32.70;99.80;;;;;;5045244;28;20028;-88
2023/08/14 11:38:22;;;;;;;4.38;2.58;;;32.70;99.90;;;;;;5052767;28;20033;-89
2023/08/14 11:40:48;;;;;;;9.70;2.40;;;32.60;99.90;;;;;;5040212;28;20067;-88
2023/08/14 11:43:14;;;;;;;5.55;2.58;;;32.40;99.90;;;;;;5043158;28;20033;-89
2023/08/14 11:45:40;;;;;;;4.05;2.55;;;32.40;99.40;;;;;;5057911;28;20029;-88
2023/08/14 11:48:08;;;;;;;5.30;2.35;;;32.40;98.00;;;;;;5039438;28;20028;-89
2023/08/14 11:50:34;;;;;;;5.93;2.63;;;32.70;97.10;;;;;;5041817;28;20104;-89
2023/08/14 11:53:00;;;;;;;5.57;2.55;;;32.90;97.10;;;;;;5034587;28;20071;-88
2023/08/14 11:55:27;;;;;;;6.50;2.38;;;33.20;98.50;;;;;;5043927;28;20025;-90
2023/08/14 11:57:53;;;;;;;3.85;2.42;;;33.30;97.20;;;;;;5061243;28;20035;-89
2023/08/14 12:00:20;;;;;;;3.20;2.00;;;32.20;97.20;;;;;;5053406;28;20108;-88
2023/08/14 12:02:46;;;;;;;4.75;2.30;;;32.60;98.50;;;;;;5046272;28;20086;-89
2023/08/14 12:05:12;;;;;;;4.03;2.42;;;32.90;97.80;;;;;;5038670;28;20685;-89
2023/08/14 12:07:41;;;;;;;6.45;2.60;;;33.10;96.70;;;;;;5064612;28;20047;-88
2023/08/14 12:10:08;;;;;;;8.35;2.13;;;33.00;97.80;;;;;;5040092;28;20023;-88
2023/08/14 12:12:34;;;;;;;3.95;2.85;;;32.00;97.10;;;;;;5048433;28;20033;-88
2023/08/14 12:15:00;;;;;;;2.55;2.28;;;31.50;97.50;;;;;;5042751;28;20370;-88
2023/08/14 12:17:25;;;;;;;4.80;3.03;;;31.70;97.40;;;;;;5052721;28;20029;-89
2023/08/14 12:19:53;;;;;;;8.70;2.20;;;31.90;98.10;;;;;;5060018;28;20016;-89
2023/08/14 12:22:24;;;;;;;3.42;2.50;;;31.30;98.50;;;;;;5043364;28;20116;-88
2023/08/14 12:24:51;;;;;;;3.83;2.70;;;30.50;99.60;;;;;;5043378;28;20452;-88
2023/08/14 12:27:25;;;;;;;4.25;2.67;;;30.50;99.90;;;;;;5035495;28;20392;-88
2023/08/14 12:29:53;;;;;;;4.38;2.42;;;30.30;98.90;;;;;;5045792;28;20033;-88
2023/08/14 12:32:19;;;;;;;7.50;2.20;;;30.00;99.50;;;;;;5054244;28;20793;-88
2023/08/14 12:34:54;;;;;;;4.22;2.58;;;30.20;98.30;;;;;;5063320;28;20036;-89
2023/08/14 12:37:42;;;;;;;6.93;2.70;;;30.10;95.80;;;;;;5054087;28;20491;-88
2023/08/14 12:40:08;;;;;;;3.90;2.60;;;30.30;97.50;;;;;;5052867;28;20043;-88
2023/08/14 12:42:35;;;;;;;4.18;2.63;;;30.40;97.30;;;;;;5045217;28;20024;-89
2023/08/14 12:45:02;;;;;;;4.75;2.67;;;30.40;96.90;;;;;;5043514;28;20147;-89
2023/08/14 12:47:28;;;;;;;4.90;3.08;;;30.50;97.30;;;;;;5061508;28;20037;-88
2023/08/14 12:49:54;;;;;;;5.13;2.80;;;30.80;96.90;;;;;;5040093;28;20490;-89
2023/08/14 12:52:19;;;;;;;8.43;3.05;;;31.00;97.10;;;;;;5044764;28;20396;-88
2023/08/14 12:54:45;;;;;;;6.70;3.03;;;31.30;96.00;;;;;;5038796;28;20368;-89
2023/08/14 13:00:37;;;;;;;4.22;3.20;;;31.70;97.10;;;;;;5061178;28;20139;-89
2023/08/14 13:03:03;;;;;;;5.18;2.80;;;31.50;96.40;;;;;;5044054;28;20061;-89
2023/08/14 13:05:29;;;;;;;6.03;3.22;;;32.20;96.30;;;;;;5047680;28;20029;-89
2023/08/14 13:07:55;;;;;;;6.55;3.05;;;32.40;94.60;;;;;;5044485;28;20035;-89
2023/08/14 13:10:21;;;;;;;6.63;3.45;;;32.50;95.20;;;;;;5041997;28;20029;-89
2023/08/14 13:12:47;;;;;;;4.90;2.70;;;32.40;94.60;;;;;;5044727;28;20026;-88
2023/08/14 13:15:12;;;;;;;5.63;2.92;;;31.80;94.50;;;;;;5057474;28;20470;-88
2023/08/14 13:17:38;;;;;;;6.53;3.05;;;32.60;94.80;;;;;;5048741;28;20032;-89
2023/08/14 13:20:04;;;;;;;4.82;2.70;;;33.50;94.60;;;;;;5045600;28;20711;-89
2023/08/14 13:22:30;;;;;;;6.32;3.30;;;34.20;93.80;;;;;;5047075;28;20032;-90
2023/08/14 13:24:56;;;;;;;5.45;3.10;;;34.10;92.90;;;;;;5061758;28;20115;-89
2023/08/14 13:27:21;;;;;;;6.85;3.10;;;34.20;93.20;;;;;;5040059;28;20033;-89
2023/08/14 13:29:47;;;;;;;9.30;3.47;;;33.30;93.20;;;;;;5049977;28;20043;-88
2023/08/14 13:32:13;;;;;;;9.63;3.10;;;32.60;94.10;;;;;;5042036;28;20063;-89
2023/08/14 13:34:38;;;;;;;5.90;2.85;;;33.40;94.90;;;;;;5061274;28;20040;-90
2023/08/14 13:37:04;;;;;;;7.18;3.28;;;33.20;92.20;;;;;;5059435;28;20029;-89
2023/08/14 13:39:30;;;;;;;6.03;2.92;;;32.30;94.20;;;;;;5047296;28;20116;-88
2023/08/14 13:41:55;;;;;;;4.45;2.90;;;31.80;94.20;;;;;;5043928;28;20040;-89
2023/08/14 13:44:21;;;;;;;6.15;3.28;;;32.20;95.40;;;;;;5058614;28;20029;-88
2023/08/14 13:46:47;;;;;;;6.68;3.13;;;32.40;93.90;;;;;;5061636;28;20071;-88
2023/08/14 13:49:12;;;;;;;3.88;3.00;;;32.30;93.80;;;;;;5043920;28;20100;-89